Terminal Aerodrome Forecast
Issued by NWS Blacksburg, VA

Home | Current Version | Previous Version | Text Only | Print | Product List | Glossary On
Versions: 1 2 3 4 5 6 7 8 9 10 11 12 13 14 15 16 17 18 19 20 21 22 23 24 25 26
000
FTUS41 KRNK 211140
TAFLYH
TAF
KLYH 211140Z 2112/2212 00000KT P6SM BKN035
     FM211600 12004KT P6SM SCT060
     FM212200 05003KT P6SM SCT250
     FM220600 04005KT P6SM OVC050
     FM221000 04005KT P6SM -RA OVC025=

USA.gov is the U.S. government's official web portal to all federal, state and local government web resources and services.